ADDS METAR Data INFO
IDs: Format: Raw Decoded Include TAF

Data at: 1324 UTC 19 Jul 2018

KCAO 191255Z AUTO 26005KT 10SM CLR 23/16 A3009 RMK AO2 SLP107 T02280161
KCAO 191155Z AUTO 26006KT 10SM CLR 19/17 A3009 RMK AO2 SLP108 T01940172 10211 20172
KCAO 191055Z AUTO 27004KT 10SM CLR 18/17 A3008 RMK AO2 SLP109 T01780167 $
KCAO 190955Z AUTO 27004KT 10SM CLR 18/17 A3009 RMK AO2 SLP108 T01780172 $
KCAO 190855Z AUTO 00000KT 10SM CLR 19/18 A3010 RMK AO2 SLP112 T01890178 56005 $
KCAO 190755Z AUTO 05004KT 10SM CLR 20/18 A3010 RMK AO2 SLP111 T02000178 $
KCAO 190655Z AUTO 06005KT 10SM CLR 20/17 A3011 RMK AO2 SLP114 T02000172 403390167 $
KCAO 190555Z AUTO 00000KT 10SM CLR 20/17 A3011 RMK AO2 SLP118 T02000172 10322 20200 $
KCAO 190455Z AUTO 10006KT 10SM 22/17 A3012 RMK AO2 SLP121 T02170167 $
KCAO 190355Z AUTO 10008KT 10SM CLR 23/15 A3012 RMK AO2 SLP113 T02330150
KCAO 190255Z AUTO 11006KT 10SM CLR 24/15 A3009 RMK AO2 SLP118 T02390150 53004
KCAO 190155Z AUTO 10008KT 10SM CLR 27/15 A3009 RMK AO2 SLP114 T02720150
KCAO 190055Z AUTO 07008KT 10SM CLR 31/14 A3008 RMK AO2 SLP101 T03110144
KCAO 182355Z AUTO 04008KT 10SM CLR 32/14 A3008 RMK AO2 SLP100 T03220139 10339 20317 56010
KCAO 182255Z AUTO 04010G14KT 10SM CLR 34/12 A3008 RMK AO2 SLP109 T03390122
KCAO 182155Z AUTO 10SM CLR 34/13 A3010 RMK AO2 SLP113 T03390128
KCAO 182055Z AUTO 03009KT 10SM CLR 33/13 A3012 RMK AO2 SLP120 T03280128 57006
KCAO 181955Z AUTO 02010KT 10SM CLR 33/13 A3013 RMK AO2 SLP122 T03280133
KCAO 181855Z AUTO 04011G14KT 10SM CLR 33/13 A3013 RMK AO2 SLP125 T03280133
KCAO 181755Z AUTO VRB05KT 10SM CLR 32/13 A3014 RMK AO2 SLP120 T03220133 10322 20172 56010
KCAO 181655Z AUTO 23006KT 10SM CLR 29/15 A3015 RMK AO2 SLP129 T02940150
KCAO 181555Z AUTO 22004KT 10SM CLR 26/16 A3016 RMK AO2 SLP141 T02610161
KCAO 181455Z AUTO 23007KT 10SM CLR 24/17 A3017 RMK AO2 SLP150 T02390167 57002
KCAO 181355Z AUTO 24006KT 10SM CLR 21/17 A3017 RMK AO2 SLP152 T02110172
KCAO 181255Z AUTO 23005KT 10SM CLR 18/16 A3017 RMK AO2 SLP154 T01830161
KCAO 181155Z AUTO 25006KT 10SM CLR 17/16 A3018 RMK AO2 SLP155 60005 70005 T01720156 10233 20167 55001
KCAO 181055Z AUTO 24005KT 10SM CLR 17/16 A3018 RMK AO2 SLP151 T01670161 $
KCAO 180955Z AUTO 28003KT 10SM CLR 17/16 A3017 RMK AO2 SLP152 T01720161 $
KCAO 180855Z AUTO 00000KT 10SM CLR 18/17 A3018 RMK AO2 SLP153 60005 T01830172 58010 $
KCAO 180755Z AUTO 34003KT 10SM FEW060 BKN090 BKN110 19/17 A3021 RMK AO2 RAE04B35E46 SLP154 P0000 T01890172 $
KCAO 180655Z AUTO 03010KT 10SM -RA OVC100 18/17 A3023 RMK AO2 RAB31 SLP153 P0005 T01830172 403220178 $
KCAO 180555Z AUTO 10SM SCT095 OVC120 24/14 A3021 RMK AO2 LTG DSNT NW SLP149 60000 T02390139 10267 20206 $
KCAO 180455Z AUTO 28011KT 10SM 24/13 A3020 RMK AO2 SLP145 T02390133 $
KCAO 180355Z AUTO 26007KT 10SM FEW095 21/16 A3016 RMK AO2 SLP129 T02110156 $
KCAO 180255Z AUTO 29004KT 10SM CLR 22/16 A3016 RMK AO2 SLP138 60000 T02170156 $
KCAO 180155Z AUTO 01007KT 10SM CLR 23/17 A3016 RMK AO2 SLP143 T02280167